sensor_id;sensor_type;location;lat;lon;timestamp;temperature;humidity
51215;DHT22;63849;47.546;19.254;2022-10-16T00:00:37;14.20;72.20
51215;DHT22;63849;47.546;19.254;2022-10-16T00:03:04;14.10;72.60
51215;DHT22;63849;47.546;19.254;2022-10-16T00:05:30;14.10;72.70
51215;DHT22;63849;47.546;19.254;2022-10-16T00:07:56;14.10;72.30
51215;DHT22;63849;47.546;19.254;2022-10-16T00:10:22;14.10;72.40
51215;DHT22;63849;47.546;19.254;2022-10-16T00:12:48;14.10;71.80
51215;DHT22;63849;47.546;19.254;2022-10-16T00:15:14;14.10;71.40
51215;DHT22;63849;47.546;19.254;2022-10-16T00:17:40;14.10;71.80
51215;DHT22;63849;47.546;19.254;2022-10-16T00:20:06;14.10;72.10
51215;DHT22;63849;47.546;19.254;2022-10-16T00:22:33;14.10;71.40
51215;DHT22;63849;47.546;19.254;2022-10-16T00:24:58;14.00;71.20
51215;DHT22;63849;47.546;19.254;2022-10-16T00:27:24;14.10;71.60
51215;DHT22;63849;47.546;19.254;2022-10-16T00:29:51;14.00;71.70
51215;DHT22;63849;47.546;19.254;2022-10-16T00:32:20;14.00;71.50
51215;DHT22;63849;47.546;19.254;2022-10-16T00:34:46;14.00;71.30
51215;DHT22;63849;47.546;19.254;2022-10-16T00:37:13;14.00;70.90
51215;DHT22;63849;47.546;19.254;2022-10-16T00:39:38;14.00;70.90
51215;DHT22;63849;47.546;19.254;2022-10-16T00:42:05;14.00;71.20
51215;DHT22;63849;47.546;19.254;2022-10-16T00:44:55;14.00;71.20
51215;DHT22;63849;47.546;19.254;2022-10-16T00:47:34;14.00;70.40
51215;DHT22;63849;47.546;19.254;2022-10-16T00:52:44;13.90;71.10
51215;DHT22;63849;47.546;19.254;2022-10-16T00:55:11;13.90;71.30
51215;DHT22;63849;47.546;19.254;2022-10-16T00:57:39;13.90;71.60
51215;DHT22;63849;47.546;19.254;2022-10-16T01:00:08;13.80;71.80
51215;DHT22;63849;47.546;19.254;2022-10-16T01:02:34;13.80;71.50
51215;DHT22;63849;47.546;19.254;2022-10-16T01:05:00;13.80;71.50
51215;DHT22;63849;47.546;19.254;2022-10-16T01:10:27;13.80;71.40
51215;DHT22;63849;47.546;19.254;2022-10-16T01:13:07;13.80;71.70
51215;DHT22;63849;47.546;19.254;2022-10-16T01:15:53;13.80;71.90
51215;DHT22;63849;47.546;19.254;2022-10-16T01:18:49;13.80;71.70
51215;DHT22;63849;47.546;19.254;2022-10-16T01:21:23;13.70;70.80
51215;DHT22;63849;47.546;19.254;2022-10-16T01:29:18;13.60;72.20
51215;DHT22;63849;47.546;19.254;2022-10-16T01:31:48;13.50;72.20
51215;DHT22;63849;47.546;19.254;2022-10-16T01:34:20;13.40;71.70
51215;DHT22;63849;47.546;19.254;2022-10-16T01:37:05;13.40;72.00
51215;DHT22;63849;47.546;19.254;2022-10-16T01:39:35;13.40;71.50
51215;DHT22;63849;47.546;19.254;2022-10-16T01:42:24;13.30;72.10
51215;DHT22;63849;47.546;19.254;2022-10-16T01:44:53;13.20;72.70
51215;DHT22;63849;47.546;19.254;2022-10-16T01:47:22;13.10;72.90
51215;DHT22;63849;47.546;19.254;2022-10-16T01:49:49;13.00;73.30
51215;DHT22;63849;47.546;19.254;2022-10-16T01:52:19;13.00;73.40
51215;DHT22;63849;47.546;19.254;2022-10-16T01:54:47;12.90;73.50
51215;DHT22;63849;47.546;19.254;2022-10-16T01:57:14;12.90;73.50
51215;DHT22;63849;47.546;19.254;2022-10-16T01:59:46;12.80;73.50
51215;DHT22;63849;47.546;19.254;2022-10-16T02:02:13;12.90;73.40
51215;DHT22;63849;47.546;19.254;2022-10-16T02:04:45;12.80;73.30
51215;DHT22;63849;47.546;19.254;2022-10-16T02:07:12;12.80;73.30
51215;DHT22;63849;47.546;19.254;2022-10-16T02:09:38;12.80;73.70
51215;DHT22;63849;47.546;19.254;2022-10-16T02:12:31;12.80;73.70
51215;DHT22;63849;47.546;19.254;2022-10-16T02:14:57;12.80;73.10
51215;DHT22;63849;47.546;19.254;2022-10-16T02:17:24;12.70;73.70
51215;DHT22;63849;47.546;19.254;2022-10-16T02:19:52;12.60;74.10
51215;DHT22;63849;47.546;19.254;2022-10-16T02:22:29;12.50;73.90
51215;DHT22;63849;47.546;19.254;2022-10-16T02:25:06;12.50;74.20
51215;DHT22;63849;47.546;19.254;2022-10-16T02:32:48;12.10;74.90
51215;DHT22;63849;47.546;19.254;2022-10-16T02:35:20;12.00;75.20
51215;DHT22;63849;47.546;19.254;2022-10-16T02:37:48;11.90;75.30
51215;DHT22;63849;47.546;19.254;2022-10-16T02:40:14;11.90;75.50
51215;DHT22;63849;47.546;19.254;2022-10-16T02:42:40;11.90;75.20
51215;DHT22;63849;47.546;19.254;2022-10-16T02:45:09;11.90;75.30
51215;DHT22;63849;47.546;19.254;2022-10-16T02:47:35;11.90;75.50
51215;DHT22;63849;47.546;19.254;2022-10-16T02:50:01;11.80;75.50
51215;DHT22;63849;47.546;19.254;2022-10-16T02:52:27;11.80;75.60
51215;DHT22;63849;47.546;19.254;2022-10-16T02:54:52;11.80;75.70
51215;DHT22;63849;47.546;19.254;2022-10-16T02:57:18;11.60;75.90
51215;DHT22;63849;47.546;19.254;2022-10-16T02:59:44;11.60;75.90
51215;DHT22;63849;47.546;19.254;2022-10-16T03:02:10;11.60;76.20
51215;DHT22;63849;47.546;19.254;2022-10-16T03:04:36;11.50;76.30
51215;DHT22;63849;47.546;19.254;2022-10-16T03:07:02;11.40;76.70
51215;DHT22;63849;47.546;19.254;2022-10-16T03:09:28;11.40;76.60
51215;DHT22;63849;47.546;19.254;2022-10-16T03:11:54;11.40;76.60
51215;DHT22;63849;47.546;19.254;2022-10-16T03:14:20;11.40;76.60
51215;DHT22;63849;47.546;19.254;2022-10-16T03:16:46;11.30;76.60
51215;DHT22;63849;47.546;19.254;2022-10-16T03:19:11;11.30;76.40
51215;DHT22;63849;47.546;19.254;2022-10-16T03:21:37;11.30;76.70
51215;DHT22;63849;47.546;19.254;2022-10-16T03:24:03;11.30;76.90
51215;DHT22;63849;47.546;19.254;2022-10-16T03:26:29;11.20;77.00
51215;DHT22;63849;47.546;19.254;2022-10-16T03:28:55;11.20;77.00
51215;DHT22;63849;47.546;19.254;2022-10-16T03:31:21;11.20;76.90
51215;DHT22;63849;47.546;19.254;2022-10-16T03:33:47;11.20;77.00
51215;DHT22;63849;47.546;19.254;2022-10-16T03:36:12;11.10;77.10
51215;DHT22;63849;47.546;19.254;2022-10-16T03:38:41;11.10;77.20
51215;DHT22;63849;47.546;19.254;2022-10-16T03:41:09;11.10;77.20
51215;DHT22;63849;47.546;19.254;2022-10-16T03:43:35;11.00;77.10
51215;DHT22;63849;47.546;19.254;2022-10-16T03:46:01;10.90;77.20
51215;DHT22;63849;47.546;19.254;2022-10-16T03:48:27;10.90;77.50
51215;DHT22;63849;47.546;19.254;2022-10-16T03:50:52;10.90;77.50
51215;DHT22;63849;47.546;19.254;2022-10-16T03:53:18;10.80;77.50
51215;DHT22;63849;47.546;19.254;2022-10-16T03:55:44;10.80;77.50
51215;DHT22;63849;47.546;19.254;2022-10-16T03:58:11;10.80;77.50
51215;DHT22;63849;47.546;19.254;2022-10-16T04:00:43;10.80;77.50
51215;DHT22;63849;47.546;19.254;2022-10-16T04:03:10;10.70;77.50
51215;DHT22;63849;47.546;19.254;2022-10-16T04:05:36;10.70;77.90
51215;DHT22;63849;47.546;19.254;2022-10-16T04:08:02;10.70;77.70
51215;DHT22;63849;47.546;19.254;2022-10-16T04:10:28;10.70;77.80
51215;DHT22;63849;47.546;19.254;2022-10-16T04:12:53;10.70;77.80
51215;DHT22;63849;47.546;19.254;2022-10-16T04:15:23;10.60;77.90
51215;DHT22;63849;47.546;19.254;2022-10-16T04:17:49;10.60;78.10
51215;DHT22;63849;47.546;19.254;2022-10-16T04:20:15;10.50;78.10
51215;DHT22;63849;47.546;19.254;2022-10-16T04:22:40;10.60;78.10
51215;DHT22;63849;47.546;19.254;2022-10-16T04:25:06;10.50;78.30
51215;DHT22;63849;47.546;19.254;2022-10-16T04:27:32;10.50;78.20
51215;DHT22;63849;47.546;19.254;2022-10-16T04:29:59;10.40;78.20
51215;DHT22;63849;47.546;19.254;2022-10-16T04:32:25;10.40;78.40
51215;DHT22;63849;47.546;19.254;2022-10-16T04:34:52;10.40;78.50
51215;DHT22;63849;47.546;19.254;2022-10-16T04:37:17;10.40;78.30
51215;DHT22;63849;47.546;19.254;2022-10-16T04:39:43;10.40;78.60
51215;DHT22;63849;47.546;19.254;2022-10-16T04:42:10;10.30;78.50
51215;DHT22;63849;47.546;19.254;2022-10-16T04:44:36;10.40;78.50
51215;DHT22;63849;47.546;19.254;2022-10-16T04:47:02;10.40;78.50
51215;DHT22;63849;47.546;19.254;2022-10-16T04:49:28;10.30;78.50
51215;DHT22;63849;47.546;19.254;2022-10-16T04:51:54;10.30;78.70
51215;DHT22;63849;47.546;19.254;2022-10-16T04:54:19;10.30;78.80
51215;DHT22;63849;47.546;19.254;2022-10-16T04:56:45;10.30;78.90
51215;DHT22;63849;47.546;19.254;2022-10-16T04:59:17;10.20;78.90
51215;DHT22;63849;47.546;19.254;2022-10-16T05:01:43;10.20;78.90
51215;DHT22;63849;47.546;19.254;2022-10-16T05:04:10;10.20;78.90
51215;DHT22;63849;47.546;19.254;2022-10-16T05:06:37;10.20;79.10
51215;DHT22;63849;47.546;19.254;2022-10-16T05:09:04;10.20;79.30
51215;DHT22;63849;47.546;19.254;2022-10-16T05:11:31;10.20;79.40
51215;DHT22;63849;47.546;19.254;2022-10-16T05:13:56;10.20;79.40
51215;DHT22;63849;47.546;19.254;2022-10-16T05:16:22;10.10;79.60
51215;DHT22;63849;47.546;19.254;2022-10-16T05:18:48;10.10;79.50
51215;DHT22;63849;47.546;19.254;2022-10-16T05:21:14;10.20;79.50
51215;DHT22;63849;47.546;19.254;2022-10-16T05:23:40;10.20;79.40
51215;DHT22;63849;47.546;19.254;2022-10-16T05:26:06;10.20;79.70
51215;DHT22;63849;47.546;19.254;2022-10-16T05:28:32;10.20;79.60
51215;DHT22;63849;47.546;19.254;2022-10-16T05:30:57;10.30;79.30
51215;DHT22;63849;47.546;19.254;2022-10-16T05:33:25;10.30;79.20
51215;DHT22;63849;47.546;19.254;2022-10-16T05:35:51;10.30;79.20
51215;DHT22;63849;47.546;19.254;2022-10-16T05:38:20;10.40;79.10
51215;DHT22;63849;47.546;19.254;2022-10-16T05:40:52;10.40;78.90
51215;DHT22;63849;47.546;19.254;2022-10-16T05:43:21;10.50;78.70
51215;DHT22;63849;47.546;19.254;2022-10-16T05:46:09;10.50;78.50
51215;DHT22;63849;47.546;19.254;2022-10-16T05:48:34;10.60;78.50
51215;DHT22;63849;47.546;19.254;2022-10-16T05:51:06;10.80;77.70
51215;DHT22;63849;47.546;19.254;2022-10-16T05:53:36;10.80;77.90
51215;DHT22;63849;47.546;19.254;2022-10-16T05:56:03;10.90;77.00
51215;DHT22;63849;47.546;19.254;2022-10-16T05:58:31;11.10;76.80
51215;DHT22;63849;47.546;19.254;2022-10-16T06:01:00;11.20;76.90
51215;DHT22;63849;47.546;19.254;2022-10-16T06:03:26;11.30;76.10
51215;DHT22;63849;47.546;19.254;2022-10-16T06:05:52;11.40;75.90
51215;DHT22;63849;47.546;19.254;2022-10-16T06:08:19;11.40;75.70
51215;DHT22;63849;47.546;19.254;2022-10-16T06:10:46;11.60;75.10
51215;DHT22;63849;47.546;19.254;2022-10-16T06:13:12;11.70;75.00
51215;DHT22;63849;47.546;19.254;2022-10-16T06:15:40;11.70;74.80
51215;DHT22;63849;47.546;19.254;2022-10-16T06:18:08;11.80;75.00
51215;DHT22;63849;47.546;19.254;2022-10-16T06:20:34;11.90;74.70
51215;DHT22;63849;47.546;19.254;2022-10-16T06:23:03;11.90;74.50
51215;DHT22;63849;47.546;19.254;2022-10-16T06:25:30;12.00;74.50
51215;DHT22;63849;47.546;19.254;2022-10-16T06:27:56;12.10;74.20
51215;DHT22;63849;47.546;19.254;2022-10-16T06:30:22;12.20;74.00
51215;DHT22;63849;47.546;19.254;2022-10-16T06:32:48;12.30;73.40
51215;DHT22;63849;47.546;19.254;2022-10-16T06:35:13;12.40;73.90
51215;DHT22;63849;47.546;19.254;2022-10-16T06:37:39;12.40;72.90
51215;DHT22;63849;47.546;19.254;2022-10-16T06:40:06;12.50;73.30
51215;DHT22;63849;47.546;19.254;2022-10-16T06:42:31;12.50;73.20
51215;DHT22;63849;47.546;19.254;2022-10-16T06:44:57;12.70;72.90
51215;DHT22;63849;47.546;19.254;2022-10-16T06:47:23;12.80;72.50
51215;DHT22;63849;47.546;19.254;2022-10-16T06:49:49;12.90;71.60
51215;DHT22;63849;47.546;19.254;2022-10-16T06:52:14;12.90;71.20
51215;DHT22;63849;47.546;19.254;2022-10-16T06:54:40;12.90;71.70
51215;DHT22;63849;47.546;19.254;2022-10-16T06:57:06;12.90;70.90
51215;DHT22;63849;47.546;19.254;2022-10-16T06:59:31;13.10;71.30
51215;DHT22;63849;47.546;19.254;2022-10-16T07:01:57;13.10;70.60
51215;DHT22;63849;47.546;19.254;2022-10-16T07:04:23;13.10;70.60
51215;DHT22;63849;47.546;19.254;2022-10-16T07:06:48;13.30;70.80
51215;DHT22;63849;47.546;19.254;2022-10-16T07:09:14;13.40;70.80
51215;DHT22;63849;47.546;19.254;2022-10-16T07:11:40;13.40;70.20
51215;DHT22;63849;47.546;19.254;2022-10-16T07:14:18;13.50;70.20
51215;DHT22;63849;47.546;19.254;2022-10-16T07:16:44;13.60;70.10
51215;DHT22;63849;47.546;19.254;2022-10-16T07:19:11;13.60;69.30
51215;DHT22;63849;47.546;19.254;2022-10-16T07:21:38;13.80;69.40
51215;DHT22;63849;47.546;19.254;2022-10-16T07:24:12;13.90;69.40
51215;DHT22;63849;47.546;19.254;2022-10-16T07:26:39;14.10;67.60
51215;DHT22;63849;47.546;19.254;2022-10-16T07:29:17;14.10;67.90
51215;DHT22;63849;47.546;19.254;2022-10-16T07:31:43;14.10;67.70
51215;DHT22;63849;47.546;19.254;2022-10-16T07:34:14;14.00;67.70
51215;DHT22;63849;47.546;19.254;2022-10-16T07:36:43;13.90;67.70
51215;DHT22;63849;47.546;19.254;2022-10-16T07:39:09;13.80;67.80
51215;DHT22;63849;47.546;19.254;2022-10-16T07:41:35;13.90;68.70
51215;DHT22;63849;47.546;19.254;2022-10-16T07:44:03;13.90;68.00
51215;DHT22;63849;47.546;19.254;2022-10-16T07:46:29;13.90;68.20
51215;DHT22;63849;47.546;19.254;2022-10-16T07:48:55;14.10;67.70
51215;DHT22;63849;47.546;19.254;2022-10-16T07:51:23;14.20;67.20
51215;DHT22;63849;47.546;19.254;2022-10-16T07:53:50;14.30;67.60
51215;DHT22;63849;47.546;19.254;2022-10-16T07:56:17;14.40;68.30
51215;DHT22;63849;47.546;19.254;2022-10-16T07:58:43;14.40;66.90
51215;DHT22;63849;47.546;19.254;2022-10-16T08:01:11;14.40;66.40
51215;DHT22;63849;47.546;19.254;2022-10-16T08:03:38;14.40;65.30
51215;DHT22;63849;47.546;19.254;2022-10-16T08:06:04;14.50;66.50
51215;DHT22;63849;47.546;19.254;2022-10-16T08:08:30;14.60;66.80
51215;DHT22;63849;47.546;19.254;2022-10-16T08:10:56;14.70;66.80
51215;DHT22;63849;47.546;19.254;2022-10-16T08:13:22;14.70;65.20
51215;DHT22;63849;47.546;19.254;2022-10-16T08:15:47;14.60;65.90
51215;DHT22;63849;47.546;19.254;2022-10-16T08:18:14;14.80;65.50
51215;DHT22;63849;47.546;19.254;2022-10-16T08:20:41;14.80;64.60
51215;DHT22;63849;47.546;19.254;2022-10-16T08:23:07;14.90;65.30
51215;DHT22;63849;47.546;19.254;2022-10-16T08:25:35;15.00;65.70
51215;DHT22;63849;47.546;19.254;2022-10-16T08:28:04;15.10;66.00
51215;DHT22;63849;47.546;19.254;2022-10-16T08:30:31;15.10;66.10
51215;DHT22;63849;47.546;19.254;2022-10-16T08:32:57;15.20;64.00
51215;DHT22;63849;47.546;19.254;2022-10-16T08:35:23;15.20;64.60
51215;DHT22;63849;47.546;19.254;2022-10-16T08:37:49;15.10;64.20
51215;DHT22;63849;47.546;19.254;2022-10-16T08:40:27;15.30;64.60
51215;DHT22;63849;47.546;19.254;2022-10-16T08:43:21;15.30;63.20
51215;DHT22;63849;47.546;19.254;2022-10-16T08:46:27;15.40;63.60
51215;DHT22;63849;47.546;19.254;2022-10-16T08:48:58;15.30;63.00
51215;DHT22;63849;47.546;19.254;2022-10-16T08:51:31;15.40;64.30
51215;DHT22;63849;47.546;19.254;2022-10-16T08:56:46;15.70;63.30
51215;DHT22;63849;47.546;19.254;2022-10-16T08:59:14;15.60;62.50
51215;DHT22;63849;47.546;19.254;2022-10-16T09:01:44;15.70;62.50
51215;DHT22;63849;47.546;19.254;2022-10-16T09:06:52;15.80;63.00
51215;DHT22;63849;47.546;19.254;2022-10-16T09:12:18;15.90;62.80
51215;DHT22;63849;47.546;19.254;2022-10-16T09:20:14;16.10;61.90
51215;DHT22;63849;47.546;19.254;2022-10-16T09:22:43;16.20;62.30
51215;DHT22;63849;47.546;19.254;2022-10-16T09:25:17;16.30;61.90
51215;DHT22;63849;47.546;19.254;2022-10-16T09:27:52;16.30;62.10
51215;DHT22;63849;47.546;19.254;2022-10-16T09:30:20;16.40;61.00
51215;DHT22;63849;47.546;19.254;2022-10-16T09:32:50;16.30;60.60
51215;DHT22;63849;47.546;19.254;2022-10-16T09:35:22;16.30;61.80
51215;DHT22;63849;47.546;19.254;2022-10-16T09:37:51;16.40;62.30
51215;DHT22;63849;47.546;19.254;2022-10-16T09:40:44;16.40;62.00
51215;DHT22;63849;47.546;19.254;2022-10-16T09:43:21;16.40;61.70
51215;DHT22;63849;47.546;19.254;2022-10-16T09:45:54;16.40;60.90
51215;DHT22;63849;47.546;19.254;2022-10-16T09:48:21;16.50;60.20
51215;DHT22;63849;47.546;19.254;2022-10-16T09:50:58;16.60;61.40
51215;DHT22;63849;47.546;19.254;2022-10-16T09:53:37;16.70;61.60
51215;DHT22;63849;47.546;19.254;2022-10-16T09:56:03;16.70;61.30
51215;DHT22;63849;47.546;19.254;2022-10-16T09:58:31;16.70;60.40
51215;DHT22;63849;47.546;19.254;2022-10-16T10:00:59;16.80;61.80
51215;DHT22;63849;47.546;19.254;2022-10-16T10:03:40;16.70;60.70
51215;DHT22;63849;47.546;19.254;2022-10-16T10:06:30;16.80;60.80
51215;DHT22;63849;47.546;19.254;2022-10-16T10:14:47;16.80;61.20
51215;DHT22;63849;47.546;19.254;2022-10-16T10:17:17;17.10;61.40
51215;DHT22;63849;47.546;19.254;2022-10-16T10:19:51;17.00;59.90
51215;DHT22;63849;47.546;19.254;2022-10-16T10:33:39;17.30;60.30
51215;DHT22;63849;47.546;19.254;2022-10-16T10:36:39;17.40;58.40
51215;DHT22;63849;47.546;19.254;2022-10-16T10:39:07;17.40;58.40
51215;DHT22;63849;47.546;19.254;2022-10-16T11:00:28;17.80;56.60
51215;DHT22;63849;47.546;19.254;2022-10-16T11:05:40;17.90;56.90
51215;DHT22;63849;47.546;19.254;2022-10-16T11:08:19;17.90;56.90
51215;DHT22;63849;47.546;19.254;2022-10-16T11:11:24;17.90;56.90
51215;DHT22;63849;47.546;19.254;2022-10-16T11:16:32;17.90;56.20
51215;DHT22;63849;47.546;19.254;2022-10-16T11:21:39;17.90;57.00
51215;DHT22;63849;47.546;19.254;2022-10-16T11:24:19;17.90;55.40
51215;DHT22;63849;47.546;19.254;2022-10-16T11:26:49;18.20;55.10
51215;DHT22;63849;47.546;19.254;2022-10-16T11:29:23;18.10;56.80
51215;DHT22;63849;47.546;19.254;2022-10-16T11:31:54;18.00;55.40
51215;DHT22;63849;47.546;19.254;2022-10-16T11:39:29;18.10;55.90
51215;DHT22;63849;47.546;19.254;2022-10-16T11:44:44;18.10;56.30
51215;DHT22;63849;47.546;19.254;2022-10-16T11:47:34;18.30;55.50
51215;DHT22;63849;47.546;19.254;2022-10-16T11:50:40;18.20;56.40
51215;DHT22;63849;47.546;19.254;2022-10-16T11:55:52;18.20;55.60
51215;DHT22;63849;47.546;19.254;2022-10-16T11:58:35;18.30;54.00
51215;DHT22;63849;47.546;19.254;2022-10-16T12:08:59;18.40;56.90
51215;DHT22;63849;47.546;19.254;2022-10-16T12:17:04;18.40;55.90
51215;DHT22;63849;47.546;19.254;2022-10-16T12:20:18;18.50;54.70
51215;DHT22;63849;47.546;19.254;2022-10-16T12:22:50;18.40;54.90
51215;DHT22;63849;47.546;19.254;2022-10-16T12:25:22;18.50;54.60
51215;DHT22;63849;47.546;19.254;2022-10-16T12:27:55;18.50;54.50
51215;DHT22;63849;47.546;19.254;2022-10-16T12:30:23;18.50;54.90
51215;DHT22;63849;47.546;19.254;2022-10-16T12:32:58;18.50;55.10
51215;DHT22;63849;47.546;19.254;2022-10-16T12:35:42;18.50;54.10
51215;DHT22;63849;47.546;19.254;2022-10-16T12:38:21;18.70;52.60
51215;DHT22;63849;47.546;19.254;2022-10-16T12:41:05;18.70;53.40
51215;DHT22;63849;47.546;19.254;2022-10-16T12:48:30;18.80;52.10
51215;DHT22;63849;47.546;19.254;2022-10-16T12:50:56;18.90;51.70
51215;DHT22;63849;47.546;19.254;2022-10-16T12:53:25;18.90;52.90
51215;DHT22;63849;47.546;19.254;2022-10-16T12:55:58;18.80;52.00
51215;DHT22;63849;47.546;19.254;2022-10-16T12:58:43;18.80;52.30
51215;DHT22;63849;47.546;19.254;2022-10-16T13:07:00;18.70;54.10
51215;DHT22;63849;47.546;19.254;2022-10-16T13:15:02;18.70;53.90
51215;DHT22;63849;47.546;19.254;2022-10-16T13:20:35;18.80;52.30
51215;DHT22;63849;47.546;19.254;2022-10-16T13:23:35;18.70;53.60
51215;DHT22;63849;47.546;19.254;2022-10-16T13:26:17;18.70;52.90
51215;DHT22;63849;47.546;19.254;2022-10-16T13:28:47;18.60;53.00
51215;DHT22;63849;47.546;19.254;2022-10-16T13:31:23;18.80;51.20
51215;DHT22;63849;47.546;19.254;2022-10-16T13:33:52;18.80;51.40
51215;DHT22;63849;47.546;19.254;2022-10-16T13:36:28;18.70;52.90
51215;DHT22;63849;47.546;19.254;2022-10-16T13:39:10;18.60;53.40
51215;DHT22;63849;47.546;19.254;2022-10-16T13:41:37;18.60;52.90
51215;DHT22;63849;47.546;19.254;2022-10-16T13:44:04;18.80;51.60
51215;DHT22;63849;47.546;19.254;2022-10-16T13:46:30;18.90;52.00
51215;DHT22;63849;47.546;19.254;2022-10-16T13:49:12;18.80;52.10
51215;DHT22;63849;47.546;19.254;2022-10-16T13:51:38;18.70;52.00
51215;DHT22;63849;47.546;19.254;2022-10-16T13:54:04;18.80;52.10
51215;DHT22;63849;47.546;19.254;2022-10-16T13:56:31;18.80;51.50
51215;DHT22;63849;47.546;19.254;2022-10-16T13:59:05;18.80;52.00
51215;DHT22;63849;47.546;19.254;2022-10-16T14:01:42;18.80;51.50
51215;DHT22;63849;47.546;19.254;2022-10-16T14:04:11;18.70;53.40
51215;DHT22;63849;47.546;19.254;2022-10-16T14:06:41;18.70;52.10
51215;DHT22;63849;47.546;19.254;2022-10-16T14:12:02;18.60;52.60
51215;DHT22;63849;47.546;19.254;2022-10-16T14:14:35;18.60;52.50
51215;DHT22;63849;47.546;19.254;2022-10-16T14:17:05;18.50;52.70
51215;DHT22;63849;47.546;19.254;2022-10-16T14:19:31;18.40;53.50
51215;DHT22;63849;47.546;19.254;2022-10-16T14:21:58;18.50;53.10
51215;DHT22;63849;47.546;19.254;2022-10-16T14:26:53;18.50;51.40
51215;DHT22;63849;47.546;19.254;2022-10-16T14:29:22;18.40;52.50
51215;DHT22;63849;47.546;19.254;2022-10-16T14:31:56;18.40;53.30
51215;DHT22;63849;47.546;19.254;2022-10-16T14:34:33;18.30;53.20
51215;DHT22;63849;47.546;19.254;2022-10-16T14:37:02;18.40;52.10
51215;DHT22;63849;47.546;19.254;2022-10-16T14:39:33;18.40;52.30
51215;DHT22;63849;47.546;19.254;2022-10-16T14:41:59;18.40;52.10
51215;DHT22;63849;47.546;19.254;2022-10-16T14:44:29;18.30;53.40
51215;DHT22;63849;47.546;19.254;2022-10-16T14:46:56;18.20;53.40
51215;DHT22;63849;47.546;19.254;2022-10-16T14:49:23;18.30;53.30
51215;DHT22;63849;47.546;19.254;2022-10-16T14:51:49;18.10;53.50
51215;DHT22;63849;47.546;19.254;2022-10-16T14:54:17;18.10;53.50
51215;DHT22;63849;47.546;19.254;2022-10-16T14:56:47;18.00;54.70
51215;DHT22;63849;47.546;19.254;2022-10-16T14:59:29;18.00;54.30
51215;DHT22;63849;47.546;19.254;2022-10-16T15:01:56;17.90;55.10
51215;DHT22;63849;47.546;19.254;2022-10-16T15:04:22;17.90;54.60
51215;DHT22;63849;47.546;19.254;2022-10-16T15:06:48;17.90;54.30
51215;DHT22;63849;47.546;19.254;2022-10-16T15:09:14;17.80;55.00
51215;DHT22;63849;47.546;19.254;2022-10-16T15:11:40;17.70;55.00
51215;DHT22;63849;47.546;19.254;2022-10-16T15:14:10;17.70;54.80
51215;DHT22;63849;47.546;19.254;2022-10-16T15:16:36;17.70;54.40
51215;DHT22;63849;47.546;19.254;2022-10-16T15:19:02;17.70;54.80
51215;DHT22;63849;47.546;19.254;2022-10-16T15:21:30;17.60;55.40
51215;DHT22;63849;47.546;19.254;2022-10-16T15:23:57;17.50;55.70
51215;DHT22;63849;47.546;19.254;2022-10-16T15:26:25;17.40;56.00
51215;DHT22;63849;47.546;19.254;2022-10-16T15:28:51;17.30;56.40
51215;DHT22;63849;47.546;19.254;2022-10-16T15:31:17;17.30;56.40
51215;DHT22;63849;47.546;19.254;2022-10-16T15:33:43;17.20;56.90
51215;DHT22;63849;47.546;19.254;2022-10-16T15:36:09;17.10;57.40
51215;DHT22;63849;47.546;19.254;2022-10-16T15:38:35;17.00;58.00
51215;DHT22;63849;47.546;19.254;2022-10-16T15:41:01;16.90;57.80
51215;DHT22;63849;47.546;19.254;2022-10-16T15:43:29;16.90;58.70
51215;DHT22;63849;47.546;19.254;2022-10-16T15:46:03;16.70;58.90
51215;DHT22;63849;47.546;19.254;2022-10-16T15:48:31;16.70;59.40
51215;DHT22;63849;47.546;19.254;2022-10-16T15:50:57;16.50;60.10
51215;DHT22;63849;47.546;19.254;2022-10-16T15:53:23;16.40;60.80
51215;DHT22;63849;47.546;19.254;2022-10-16T15:55:49;16.30;61.20
51215;DHT22;63849;47.546;19.254;2022-10-16T15:58:15;16.20;61.40
51215;DHT22;63849;47.546;19.254;2022-10-16T16:00:40;16.10;61.60
51215;DHT22;63849;47.546;19.254;2022-10-16T16:03:06;16.10;61.80
51215;DHT22;63849;47.546;19.254;2022-10-16T16:05:32;16.00;62.50
51215;DHT22;63849;47.546;19.254;2022-10-16T16:07:58;15.90;63.10
51215;DHT22;63849;47.546;19.254;2022-10-16T16:10:24;15.90;63.40
51215;DHT22;63849;47.546;19.254;2022-10-16T16:12:50;15.90;62.90
51215;DHT22;63849;47.546;19.254;2022-10-16T16:15:19;15.80;63.50
51215;DHT22;63849;47.546;19.254;2022-10-16T16:17:45;15.60;64.70
51215;DHT22;63849;47.546;19.254;2022-10-16T16:20:11;15.50;65.40
51215;DHT22;63849;47.546;19.254;2022-10-16T16:22:37;15.40;65.60
51215;DHT22;63849;47.546;19.254;2022-10-16T16:25:03;15.30;65.90
51215;DHT22;63849;47.546;19.254;2022-10-16T16:27:28;15.30;66.60
51215;DHT22;63849;47.546;19.254;2022-10-16T16:29:55;15.20;66.70
51215;DHT22;63849;47.546;19.254;2022-10-16T16:32:21;15.20;66.60
51215;DHT22;63849;47.546;19.254;2022-10-16T16:34:47;15.20;67.00
51215;DHT22;63849;47.546;19.254;2022-10-16T16:37:13;15.00;67.60
51215;DHT22;63849;47.546;19.254;2022-10-16T16:39:39;14.90;68.00
51215;DHT22;63849;47.546;19.254;2022-10-16T16:42:05;14.90;68.10
51215;DHT22;63849;47.546;19.254;2022-10-16T16:44:33;14.90;67.90
51215;DHT22;63849;47.546;19.254;2022-10-16T16:47:02;14.90;68.40
51215;DHT22;63849;47.546;19.254;2022-10-16T16:49:28;14.90;67.60
51215;DHT22;63849;47.546;19.254;2022-10-16T16:51:54;14.90;68.30
51215;DHT22;63849;47.546;19.254;2022-10-16T16:54:20;14.80;68.30
51215;DHT22;63849;47.546;19.254;2022-10-16T16:56:46;14.70;68.70
51215;DHT22;63849;47.546;19.254;2022-10-16T16:59:18;14.70;68.30
51215;DHT22;63849;47.546;19.254;2022-10-16T17:01:45;14.70;68.40
51215;DHT22;63849;47.546;19.254;2022-10-16T17:04:11;14.60;68.60
51215;DHT22;63849;47.546;19.254;2022-10-16T17:06:37;14.50;68.70
51215;DHT22;63849;47.546;19.254;2022-10-16T17:09:05;14.50;69.00
51215;DHT22;63849;47.546;19.254;2022-10-16T17:11:31;14.50;69.20
51215;DHT22;63849;47.546;19.254;2022-10-16T17:13:58;14.40;69.30
51215;DHT22;63849;47.546;19.254;2022-10-16T17:16:27;14.40;69.20
51215;DHT22;63849;47.546;19.254;2022-10-16T17:18:53;14.40;69.50
51215;DHT22;63849;47.546;19.254;2022-10-16T17:21:19;14.40;69.70
51215;DHT22;63849;47.546;19.254;2022-10-16T17:23:45;14.30;69.80
51215;DHT22;63849;47.546;19.254;2022-10-16T17:26:15;14.30;69.50
51215;DHT22;63849;47.546;19.254;2022-10-16T17:28:42;14.20;69.70
51215;DHT22;63849;47.546;19.254;2022-10-16T17:31:13;14.20;70.10